sensor_id;sensor_type;location;lat;lon;timestamp;P1;durP1;ratioP1;P2;durP2;ratioP2
66371;SDS011;53168;51.146;17.120;2023-10-08T00:03:04;0.65;;;0.60;;
66371;SDS011;53168;51.146;17.120;2023-10-08T00:06:45;0.72;;;0.67;;
66371;SDS011;53168;51.146;17.120;2023-10-08T00:14:37;0.89;;;0.80;;
66371;SDS011;53168;51.146;17.120;2023-10-08T00:17:16;0.96;;;0.89;;
66371;SDS011;53168;51.146;17.120;2023-10-08T00:19:50;0.86;;;0.80;;
66371;SDS011;53168;51.146;17.120;2023-10-08T00:22:30;0.73;;;0.68;;
66371;SDS011;53168;51.146;17.120;2023-10-08T00:25:06;0.67;;;0.61;;
66371;SDS011;53168;51.146;17.120;2023-10-08T00:27:41;0.69;;;0.64;;
66371;SDS011;53168;51.146;17.120;2023-10-08T00:30:20;0.84;;;0.78;;
66371;SDS011;53168;51.146;17.120;2023-10-08T00:36:15;0.78;;;0.70;;
66371;SDS011;53168;51.146;17.120;2023-10-08T00:44:02;1.01;;;0.91;;
66371;SDS011;53168;51.146;17.120;2023-10-08T00:46:42;1.00;;;0.90;;
66371;SDS011;53168;51.146;17.120;2023-10-08T00:49:19;0.88;;;0.79;;
66371;SDS011;53168;51.146;17.120;2023-10-08T00:52:04;0.94;;;0.83;;
66371;SDS011;53168;51.146;17.120;2023-10-08T01:33:19;0.98;;;0.94;;
66371;SDS011;53168;51.146;17.120;2023-10-08T01:35:58;0.80;;;0.78;;
66371;SDS011;53168;51.146;17.120;2023-10-08T01:38:34;0.91;;;0.89;;
66371;SDS011;53168;51.146;17.120;2023-10-08T01:41:11;0.98;;;0.95;;
66371;SDS011;53168;51.146;17.120;2023-10-08T01:43:49;1.00;;;0.96;;
66371;SDS011;53168;51.146;17.120;2023-10-08T01:46:23;1.04;;;1.01;;
66371;SDS011;53168;51.146;17.120;2023-10-08T01:48:58;1.07;;;1.03;;
66371;SDS011;53168;51.146;17.120;2023-10-08T01:51:38;1.26;;;1.20;;
66371;SDS011;53168;51.146;17.120;2023-10-08T01:54:16;1.19;;;1.12;;
66371;SDS011;53168;51.146;17.120;2023-10-08T02:05:07;1.39;;;1.27;;
66371;SDS011;53168;51.146;17.120;2023-10-08T02:07:52;1.15;;;1.05;;
66371;SDS011;53168;51.146;17.120;2023-10-08T02:10:29;1.26;;;1.14;;
66371;SDS011;53168;51.146;17.120;2023-10-08T02:13:07;1.18;;;1.09;;
66371;SDS011;53168;51.146;17.120;2023-10-08T02:38:38;1.78;;;1.47;;
66371;SDS011;53168;51.146;17.120;2023-10-08T02:42:07;1.79;;;1.47;;
66371;SDS011;53168;51.146;17.120;2023-10-08T02:45:00;1.74;;;1.41;;
66371;SDS011;53168;51.146;17.120;2023-10-08T02:48:45;1.58;;;1.29;;
66371;SDS011;53168;51.146;17.120;2023-10-08T02:51:30;1.42;;;1.18;;
66371;SDS011;53168;51.146;17.120;2023-10-08T02:54:43;1.52;;;1.27;;
66371;SDS011;53168;51.146;17.120;2023-10-08T03:01:22;1.35;;;1.14;;
66371;SDS011;53168;51.146;17.120;2023-10-08T03:04:36;1.41;;;1.19;;
66371;SDS011;53168;51.146;17.120;2023-10-08T03:07:52;1.50;;;1.27;;
66371;SDS011;53168;51.146;17.120;2023-10-08T03:10:27;1.53;;;1.30;;
66371;SDS011;53168;51.146;17.120;2023-10-08T03:13:02;1.75;;;1.51;;
66371;SDS011;53168;51.146;17.120;2023-10-08T03:15:42;1.59;;;1.38;;
66371;SDS011;53168;51.146;17.120;2023-10-08T03:18:38;1.83;;;1.59;;
66371;SDS011;53168;51.146;17.120;2023-10-08T03:21:16;1.31;;;1.16;;
66371;SDS011;53168;51.146;17.120;2023-10-08T03:23:54;1.17;;;1.06;;
66371;SDS011;53168;51.146;17.120;2023-10-08T03:26:28;1.20;;;1.08;;
66371;SDS011;53168;51.146;17.120;2023-10-08T03:29:08;1.14;;;1.03;;
66371;SDS011;53168;51.146;17.120;2023-10-08T03:31:46;1.12;;;1.00;;
66371;SDS011;53168;51.146;17.120;2023-10-08T03:34:22;1.10;;;0.98;;
66371;SDS011;53168;51.146;17.120;2023-10-08T03:37:04;1.24;;;1.09;;
66371;SDS011;53168;51.146;17.120;2023-10-08T03:40:25;1.06;;;0.92;;
66371;SDS011;53168;51.146;17.120;2023-10-08T03:43:13;1.24;;;1.05;;
66371;SDS011;53168;51.146;17.120;2023-10-08T03:46:46;1.48;;;1.27;;
66371;SDS011;53168;51.146;17.120;2023-10-08T03:49:53;1.19;;;1.04;;
66371;SDS011;53168;51.146;17.120;2023-10-08T03:52:35;1.25;;;1.10;;
66371;SDS011;53168;51.146;17.120;2023-10-08T03:55:13;1.19;;;1.07;;
66371;SDS011;53168;51.146;17.120;2023-10-08T03:57:58;1.19;;;1.09;;
66371;SDS011;53168;51.146;17.120;2023-10-08T04:00:33;1.17;;;1.06;;
66371;SDS011;53168;51.146;17.120;2023-10-08T04:03:11;1.17;;;1.07;;
66371;SDS011;53168;51.146;17.120;2023-10-08T04:05:53;1.06;;;0.98;;
66371;SDS011;53168;51.146;17.120;2023-10-08T04:08:44;1.16;;;1.07;;
66371;SDS011;53168;51.146;17.120;2023-10-08T04:11:27;1.09;;;1.02;;
66371;SDS011;53168;51.146;17.120;2023-10-08T04:14:05;1.35;;;1.23;;
66371;SDS011;53168;51.146;17.120;2023-10-08T04:16:39;1.38;;;1.26;;
66371;SDS011;53168;51.146;17.120;2023-10-08T04:23:04;1.66;;;1.49;;
66371;SDS011;53168;51.146;17.120;2023-10-08T04:26:35;1.35;;;1.23;;
66371;SDS011;53168;51.146;17.120;2023-10-08T04:34:15;1.55;;;1.39;;
66371;SDS011;53168;51.146;17.120;2023-10-08T04:36:51;1.65;;;1.46;;
66371;SDS011;53168;51.146;17.120;2023-10-08T04:39:30;1.61;;;1.45;;
66371;SDS011;53168;51.146;17.120;2023-10-08T04:42:05;1.37;;;1.24;;
66371;SDS011;53168;51.146;17.120;2023-10-08T04:44:42;1.64;;;1.49;;
66371;SDS011;53168;51.146;17.120;2023-10-08T04:47:17;1.60;;;1.45;;
66371;SDS011;53168;51.146;17.120;2023-10-08T04:50:09;1.85;;;1.68;;
66371;SDS011;53168;51.146;17.120;2023-10-08T04:53:30;1.83;;;1.64;;
66371;SDS011;53168;51.146;17.120;2023-10-08T04:56:54;1.60;;;1.47;;
66371;SDS011;53168;51.146;17.120;2023-10-08T05:00:18;1.95;;;1.78;;
66371;SDS011;53168;51.146;17.120;2023-10-08T05:18:35;2.50;;;2.25;;
66371;SDS011;53168;51.146;17.120;2023-10-08T05:21:37;2.91;;;2.66;;
66371;SDS011;53168;51.146;17.120;2023-10-08T05:24:31;2.53;;;2.39;;
66371;SDS011;53168;51.146;17.120;2023-10-08T05:27:13;2.94;;;2.81;;
66371;SDS011;53168;51.146;17.120;2023-10-08T05:30:28;2.75;;;2.68;;
66371;SDS011;53168;51.146;17.120;2023-10-08T05:33:11;3.13;;;3.08;;
66371;SDS011;53168;51.146;17.120;2023-10-08T05:35:55;3.42;;;3.32;;
66371;SDS011;53168;51.146;17.120;2023-10-08T05:38:46;3.47;;;3.36;;
66371;SDS011;53168;51.146;17.120;2023-10-08T05:41:41;3.22;;;3.13;;
66371;SDS011;53168;51.146;17.120;2023-10-08T05:44:34;3.41;;;3.35;;
66371;SDS011;53168;51.146;17.120;2023-10-08T05:47:09;3.62;;;3.57;;
66371;SDS011;53168;51.146;17.120;2023-10-08T05:50:08;3.55;;;3.52;;
66371;SDS011;53168;51.146;17.120;2023-10-08T05:53:13;3.79;;;3.75;;
66371;SDS011;53168;51.146;17.120;2023-10-08T05:56:12;4.17;;;4.07;;
66371;SDS011;53168;51.146;17.120;2023-10-08T05:59:10;3.99;;;3.93;;
66371;SDS011;53168;51.146;17.120;2023-10-08T06:01:48;4.11;;;3.99;;
66371;SDS011;53168;51.146;17.120;2023-10-08T06:04:36;4.90;;;4.71;;
66371;SDS011;53168;51.146;17.120;2023-10-08T06:07:25;4.80;;;4.73;;
66371;SDS011;53168;51.146;17.120;2023-10-08T06:10:31;5.46;;;5.40;;
66371;SDS011;53168;51.146;17.120;2023-10-08T06:13:15;5.83;;;5.77;;
66371;SDS011;53168;51.146;17.120;2023-10-08T06:15:59;6.48;;;6.42;;
66371;SDS011;53168;51.146;17.120;2023-10-08T06:18:38;6.56;;;6.49;;
66371;SDS011;53168;51.146;17.120;2023-10-08T06:21:23;6.41;;;6.33;;
66371;SDS011;53168;51.146;17.120;2023-10-08T06:24:09;6.73;;;6.66;;
66371;SDS011;53168;51.146;17.120;2023-10-08T06:27:47;6.33;;;6.28;;
66371;SDS011;53168;51.146;17.120;2023-10-08T06:30:39;7.21;;;7.14;;
66371;SDS011;53168;51.146;17.120;2023-10-08T06:39:53;5.92;;;5.87;;
66371;SDS011;53168;51.146;17.120;2023-10-08T06:43:06;6.00;;;5.95;;
66371;SDS011;53168;51.146;17.120;2023-10-08T06:46:04;5.38;;;5.33;;
66371;SDS011;53168;51.146;17.120;2023-10-08T06:48:42;5.84;;;5.74;;
66371;SDS011;53168;51.146;17.120;2023-10-08T06:51:20;5.70;;;5.63;;
66371;SDS011;53168;51.146;17.120;2023-10-08T06:54:00;5.88;;;5.82;;
66371;SDS011;53168;51.146;17.120;2023-10-08T06:56:42;5.59;;;5.56;;
66371;SDS011;53168;51.146;17.120;2023-10-08T06:59:41;5.46;;;5.42;;
66371;SDS011;53168;51.146;17.120;2023-10-08T07:02:15;5.34;;;5.30;;
66371;SDS011;53168;51.146;17.120;2023-10-08T07:04:49;5.29;;;5.27;;
66371;SDS011;53168;51.146;17.120;2023-10-08T07:11:02;4.43;;;4.41;;
66371;SDS011;53168;51.146;17.120;2023-10-08T07:13:46;3.99;;;3.96;;
66371;SDS011;53168;51.146;17.120;2023-10-08T07:16:22;3.86;;;3.83;;
66371;SDS011;53168;51.146;17.120;2023-10-08T07:18:58;3.83;;;3.80;;
66371;SDS011;53168;51.146;17.120;2023-10-08T07:21:48;4.26;;;4.23;;
66371;SDS011;53168;51.146;17.120;2023-10-08T07:24:42;3.69;;;3.67;;
66371;SDS011;53168;51.146;17.120;2023-10-08T07:27:32;4.54;;;4.53;;
66371;SDS011;53168;51.146;17.120;2023-10-08T07:30:07;4.20;;;4.18;;
66371;SDS011;53168;51.146;17.120;2023-10-08T07:32:42;3.87;;;3.84;;
66371;SDS011;53168;51.146;17.120;2023-10-08T07:35:29;3.82;;;3.81;;
66371;SDS011;53168;51.146;17.120;2023-10-08T07:38:10;2.74;;;2.74;;
66371;SDS011;53168;51.146;17.120;2023-10-08T07:41:30;1.55;;;1.55;;
66371;SDS011;53168;51.146;17.120;2023-10-08T07:44:04;1.89;;;1.89;;
66371;SDS011;53168;51.146;17.120;2023-10-08T07:46:38;2.08;;;2.08;;
66371;SDS011;53168;51.146;17.120;2023-10-08T07:49:22;1.86;;;1.85;;
66371;SDS011;53168;51.146;17.120;2023-10-08T07:51:59;1.75;;;1.73;;
66371;SDS011;53168;51.146;17.120;2023-10-08T07:54:39;1.75;;;1.72;;
66371;SDS011;53168;51.146;17.120;2023-10-08T07:57:35;1.63;;;1.61;;
66371;SDS011;53168;51.146;17.120;2023-10-08T08:00:13;1.81;;;1.79;;
66371;SDS011;53168;51.146;17.120;2023-10-08T08:02:53;1.74;;;1.72;;
66371;SDS011;53168;51.146;17.120;2023-10-08T08:05:27;2.20;;;2.19;;
66371;SDS011;53168;51.146;17.120;2023-10-08T08:08:01;2.15;;;2.15;;
66371;SDS011;53168;51.146;17.120;2023-10-08T08:10:34;2.29;;;2.29;;
66371;SDS011;53168;51.146;17.120;2023-10-08T08:13:09;2.41;;;2.41;;
66371;SDS011;53168;51.146;17.120;2023-10-08T08:15:51;2.39;;;2.39;;
66371;SDS011;53168;51.146;17.120;2023-10-08T08:18:51;2.32;;;2.32;;
66371;SDS011;53168;51.146;17.120;2023-10-08T08:21:39;1.85;;;1.85;;
66371;SDS011;53168;51.146;17.120;2023-10-08T08:24:18;1.60;;;1.59;;
66371;SDS011;53168;51.146;17.120;2023-10-08T08:27:06;1.21;;;1.20;;
66371;SDS011;53168;51.146;17.120;2023-10-08T08:29:41;1.13;;;1.11;;
66371;SDS011;53168;51.146;17.120;2023-10-08T08:32:18;1.07;;;1.04;;
66371;SDS011;53168;51.146;17.120;2023-10-08T08:35:01;1.19;;;1.15;;
66371;SDS011;53168;51.146;17.120;2023-10-08T08:37:37;1.18;;;1.14;;
66371;SDS011;53168;51.146;17.120;2023-10-08T08:40:17;1.27;;;1.21;;
66371;SDS011;53168;51.146;17.120;2023-10-08T08:43:17;1.14;;;1.09;;
66371;SDS011;53168;51.146;17.120;2023-10-08T08:46:13;1.07;;;1.03;;
66371;SDS011;53168;51.146;17.120;2023-10-08T08:48:49;1.36;;;1.30;;
66371;SDS011;53168;51.146;17.120;2023-10-08T08:51:30;1.34;;;1.30;;
66371;SDS011;53168;51.146;17.120;2023-10-08T08:54:05;1.16;;;1.12;;
66371;SDS011;53168;51.146;17.120;2023-10-08T09:26:10;0.89;;;0.87;;
66371;SDS011;53168;51.146;17.120;2023-10-08T09:29:00;0.85;;;0.83;;
66371;SDS011;53168;51.146;17.120;2023-10-08T09:31:54;0.82;;;0.79;;
66371;SDS011;53168;51.146;17.120;2023-10-08T09:34:28;0.93;;;0.90;;
66371;SDS011;53168;51.146;17.120;2023-10-08T09:37:00;0.92;;;0.89;;
66371;SDS011;53168;51.146;17.120;2023-10-08T09:39:36;1.02;;;0.99;;
66371;SDS011;53168;51.146;17.120;2023-10-08T09:42:29;0.81;;;0.79;;
66371;SDS011;53168;51.146;17.120;2023-10-08T10:02:46;0.94;;;0.92;;
66371;SDS011;53168;51.146;17.120;2023-10-08T10:05:21;0.78;;;0.76;;
66371;SDS011;53168;51.146;17.120;2023-10-08T10:08:03;0.89;;;0.85;;
66371;SDS011;53168;51.146;17.120;2023-10-08T10:10:42;0.96;;;0.92;;
66371;SDS011;53168;51.146;17.120;2023-10-08T10:13:18;0.77;;;0.74;;
66371;SDS011;53168;51.146;17.120;2023-10-08T10:16:13;0.84;;;0.80;;
66371;SDS011;53168;51.146;17.120;2023-10-08T10:37:40;1.07;;;0.97;;
66371;SDS011;53168;51.146;17.120;2023-10-08T10:40:11;0.80;;;0.73;;
66371;SDS011;53168;51.146;17.120;2023-10-08T10:42:57;0.87;;;0.80;;
66371;SDS011;53168;51.146;17.120;2023-10-08T10:45:30;0.88;;;0.80;;
66371;SDS011;53168;51.146;17.120;2023-10-08T10:48:04;0.96;;;0.89;;
66371;SDS011;53168;51.146;17.120;2023-10-08T10:50:44;1.16;;;1.06;;
66371;SDS011;53168;51.146;17.120;2023-10-08T10:54:22;1.38;;;1.25;;
66371;SDS011;53168;51.146;17.120;2023-10-08T11:00:47;0.98;;;0.88;;
66371;SDS011;53168;51.146;17.120;2023-10-08T11:04:21;1.07;;;0.97;;
66371;SDS011;53168;51.146;17.120;2023-10-08T11:11:28;0.92;;;0.84;;
66371;SDS011;53168;51.146;17.120;2023-10-08T11:18:01;0.81;;;0.75;;
66371;SDS011;53168;51.146;17.120;2023-10-08T11:35:07;1.08;;;0.95;;
66371;SDS011;53168;51.146;17.120;2023-10-08T11:37:51;0.81;;;0.74;;
66371;SDS011;53168;51.146;17.120;2023-10-08T11:40:32;0.81;;;0.75;;
66371;SDS011;53168;51.146;17.120;2023-10-08T11:43:23;0.78;;;0.74;;
66371;SDS011;53168;51.146;17.120;2023-10-08T11:46:13;0.87;;;0.82;;
66371;SDS011;53168;51.146;17.120;2023-10-08T11:51:49;0.86;;;0.81;;
66371;SDS011;53168;51.146;17.120;2023-10-08T11:54:30;0.67;;;0.64;;
66371;SDS011;53168;51.146;17.120;2023-10-08T11:57:29;1.17;;;1.11;;
66371;SDS011;53168;51.146;17.120;2023-10-08T12:00:22;0.83;;;0.80;;
66371;SDS011;53168;51.146;17.120;2023-10-08T12:03:11;0.76;;;0.74;;
66371;SDS011;53168;51.146;17.120;2023-10-08T12:05:50;0.80;;;0.77;;
66371;SDS011;53168;51.146;17.120;2023-10-08T12:08:29;0.87;;;0.84;;
66371;SDS011;53168;51.146;17.120;2023-10-08T12:11:09;0.97;;;0.93;;
66371;SDS011;53168;51.146;17.120;2023-10-08T12:13:48;0.81;;;0.78;;
66371;SDS011;53168;51.146;17.120;2023-10-08T12:16:23;0.79;;;0.76;;
66371;SDS011;53168;51.146;17.120;2023-10-08T12:19:17;0.92;;;0.89;;
66371;SDS011;53168;51.146;17.120;2023-10-08T12:21:52;0.72;;;0.70;;
66371;SDS011;53168;51.146;17.120;2023-10-08T12:24:27;0.77;;;0.74;;
66371;SDS011;53168;51.146;17.120;2023-10-08T12:27:02;0.93;;;0.90;;
66371;SDS011;53168;51.146;17.120;2023-10-08T12:29:41;0.62;;;0.60;;
66371;SDS011;53168;51.146;17.120;2023-10-08T12:32:35;0.80;;;0.78;;
66371;SDS011;53168;51.146;17.120;2023-10-08T12:35:19;0.88;;;0.86;;
66371;SDS011;53168;51.146;17.120;2023-10-08T12:38:27;0.71;;;0.70;;
66371;SDS011;53168;51.146;17.120;2023-10-08T12:41:01;0.73;;;0.72;;
66371;SDS011;53168;51.146;17.120;2023-10-08T12:43:46;0.93;;;0.92;;
66371;SDS011;53168;51.146;17.120;2023-10-08T12:46:22;1.18;;;1.15;;
66371;SDS011;53168;51.146;17.120;2023-10-08T12:49:00;0.97;;;0.94;;
66371;SDS011;53168;51.146;17.120;2023-10-08T12:51:42;0.73;;;0.71;;
66371;SDS011;53168;51.146;17.120;2023-10-08T12:54:21;0.67;;;0.66;;
66371;SDS011;53168;51.146;17.120;2023-10-08T12:57:15;0.64;;;0.63;;
66371;SDS011;53168;51.146;17.120;2023-10-08T13:00:08;0.62;;;0.61;;
66371;SDS011;53168;51.146;17.120;2023-10-08T13:02:58;0.83;;;0.82;;
66371;SDS011;53168;51.146;17.120;2023-10-08T13:06:08;0.70;;;0.70;;
66371;SDS011;53168;51.146;17.120;2023-10-08T13:09:24;0.66;;;0.66;;
66371;SDS011;53168;51.146;17.120;2023-10-08T13:12:26;0.65;;;0.64;;
66371;SDS011;53168;51.146;17.120;2023-10-08T13:15:09;0.67;;;0.66;;
66371;SDS011;53168;51.146;17.120;2023-10-08T13:17:53;0.96;;;0.95;;
66371;SDS011;53168;51.146;17.120;2023-10-08T13:20:45;0.93;;;0.92;;
66371;SDS011;53168;51.146;17.120;2023-10-08T13:30:17;0.78;;;0.76;;
66371;SDS011;53168;51.146;17.120;2023-10-08T13:32:54;0.67;;;0.66;;
66371;SDS011;53168;51.146;17.120;2023-10-08T13:35:55;0.57;;;0.55;;
66371;SDS011;53168;51.146;17.120;2023-10-08T13:39:26;0.69;;;0.67;;
66371;SDS011;53168;51.146;17.120;2023-10-08T13:42:17;0.74;;;0.72;;
66371;SDS011;53168;51.146;17.120;2023-10-08T13:48:35;0.83;;;0.81;;
66371;SDS011;53168;51.146;17.120;2023-10-08T13:51:58;0.81;;;0.79;;
66371;SDS011;53168;51.146;17.120;2023-10-08T13:54:33;0.77;;;0.76;;
66371;SDS011;53168;51.146;17.120;2023-10-08T13:57:11;0.69;;;0.68;;
66371;SDS011;53168;51.146;17.120;2023-10-08T13:59:48;0.74;;;0.73;;
66371;SDS011;53168;51.146;17.120;2023-10-08T14:02:23;0.70;;;0.68;;
66371;SDS011;53168;51.146;17.120;2023-10-08T14:05:00;0.81;;;0.79;;
66371;SDS011;53168;51.146;17.120;2023-10-08T14:07:46;0.69;;;0.68;;
66371;SDS011;53168;51.146;17.120;2023-10-08T14:10:22;0.64;;;0.63;;
66371;SDS011;53168;51.146;17.120;2023-10-08T14:13:10;0.79;;;0.78;;
66371;SDS011;53168;51.146;17.120;2023-10-08T14:15:50;0.80;;;0.79;;
66371;SDS011;53168;51.146;17.120;2023-10-08T14:18:30;0.80;;;0.78;;
66371;SDS011;53168;51.146;17.120;2023-10-08T14:21:24;0.88;;;0.86;;
66371;SDS011;53168;51.146;17.120;2023-10-08T14:24:21;0.73;;;0.71;;
66371;SDS011;53168;51.146;17.120;2023-10-08T14:27:01;0.71;;;0.69;;
66371;SDS011;53168;51.146;17.120;2023-10-08T14:29:42;0.77;;;0.76;;
66371;SDS011;53168;51.146;17.120;2023-10-08T14:32:22;0.97;;;0.96;;
66371;SDS011;53168;51.146;17.120;2023-10-08T14:35:15;0.88;;;0.87;;
66371;SDS011;53168;51.146;17.120;2023-10-08T14:38:12;0.87;;;0.87;;
66371;SDS011;53168;51.146;17.120;2023-10-08T14:41:32;0.69;;;0.69;;
66371;SDS011;53168;51.146;17.120;2023-10-08T14:44:26;0.73;;;0.73;;
66371;SDS011;53168;51.146;17.120;2023-10-08T14:47:06;0.79;;;0.78;;
66371;SDS011;53168;51.146;17.120;2023-10-08T14:52:52;0.81;;;0.81;;
66371;SDS011;53168;51.146;17.120;2023-10-08T14:58:26;0.78;;;0.76;;
66371;SDS011;53168;51.146;17.120;2023-10-08T15:01:03;0.96;;;0.95;;
66371;SDS011;53168;51.146;17.120;2023-10-08T15:03:51;0.91;;;0.91;;
66371;SDS011;53168;51.146;17.120;2023-10-08T15:06:27;0.98;;;0.96;;
66371;SDS011;53168;51.146;17.120;2023-10-08T15:09:05;0.86;;;0.84;;
66371;SDS011;53168;51.146;17.120;2023-10-08T15:11:39;0.93;;;0.90;;
66371;SDS011;53168;51.146;17.120;2023-10-08T15:14:22;0.94;;;0.91;;
66371;SDS011;53168;51.146;17.120;2023-10-08T15:16:57;1.05;;;1.01;;
66371;SDS011;53168;51.146;17.120;2023-10-08T15:19:31;0.98;;;0.95;;
66371;SDS011;53168;51.146;17.120;2023-10-08T15:22:05;0.85;;;0.83;;
66371;SDS011;53168;51.146;17.120;2023-10-08T15:24:39;0.86;;;0.85;;
66371;SDS011;53168;51.146;17.120;2023-10-08T15:27:14;0.88;;;0.87;;
66371;SDS011;53168;51.146;17.120;2023-10-08T15:29:49;0.88;;;0.87;;
66371;SDS011;53168;51.146;17.120;2023-10-08T15:32:27;0.99;;;0.97;;
66371;SDS011;53168;51.146;17.120;2023-10-08T15:35:02;1.16;;;1.14;;
66371;SDS011;53168;51.146;17.120;2023-10-08T15:37:44;0.82;;;0.81;;
66371;SDS011;53168;51.146;17.120;2023-10-08T15:40:18;0.99;;;0.97;;
66371;SDS011;53168;51.146;17.120;2023-10-08T15:42:53;0.84;;;0.82;;
66371;SDS011;53168;51.146;17.120;2023-10-08T15:45:29;0.81;;;0.79;;
66371;SDS011;53168;51.146;17.120;2023-10-08T15:48:06;1.00;;;0.99;;
66371;SDS011;53168;51.146;17.120;2023-10-08T15:50:41;1.43;;;1.40;;
66371;SDS011;53168;51.146;17.120;2023-10-08T15:53:16;1.91;;;1.87;;
66371;SDS011;53168;51.146;17.120;2023-10-08T15:55:49;1.13;;;1.11;;
66371;SDS011;53168;51.146;17.120;2023-10-08T15:58:25;1.09;;;1.07;;
66371;SDS011;53168;51.146;17.120;2023-10-08T16:01:08;1.06;;;1.04;;
66371;SDS011;53168;51.146;17.120;2023-10-08T16:03:57;1.06;;;1.05;;
66371;SDS011;53168;51.146;17.120;2023-10-08T16:07:00;1.02;;;1.01;;
66371;SDS011;53168;51.146;17.120;2023-10-08T16:09:37;1.11;;;1.10;;
66371;SDS011;53168;51.146;17.120;2023-10-08T16:12:34;1.16;;;1.13;;
66371;SDS011;53168;51.146;17.120;2023-10-08T16:15:15;1.30;;;1.30;;
66371;SDS011;53168;51.146;17.120;2023-10-08T16:17:52;1.30;;;1.29;;
66371;SDS011;53168;51.146;17.120;2023-10-08T16:20:28;1.53;;;1.50;;
66371;SDS011;53168;51.146;17.120;2023-10-08T16:23:02;1.52;;;1.49;;
66371;SDS011;53168;51.146;17.120;2023-10-08T16:25:41;1.85;;;1.83;;
66371;SDS011;53168;51.146;17.120;2023-10-08T16:28:30;2.52;;;2.49;;
66371;SDS011;53168;51.146;17.120;2023-10-08T16:31:05;2.10;;;2.07;;
66371;SDS011;53168;51.146;17.120;2023-10-08T16:33:40;2.27;;;2.19;;
66371;SDS011;53168;51.146;17.120;2023-10-08T16:36:18;2.39;;;2.29;;
66371;SDS011;53168;51.146;17.120;2023-10-08T16:38:53;2.77;;;2.66;;
66371;SDS011;53168;51.146;17.120;2023-10-08T16:41:31;2.73;;;2.68;;
66371;SDS011;53168;51.146;17.120;2023-10-08T16:44:05;2.94;;;2.88;;
66371;SDS011;53168;51.146;17.120;2023-10-08T16:46:41;3.58;;;3.51;;
66371;SDS011;53168;51.146;17.120;2023-10-08T16:49:18;3.79;;;3.74;;
66371;SDS011;53168;51.146;17.120;2023-10-08T16:51:58;5.10;;;5.00;;
66371;SDS011;53168;51.146;17.120;2023-10-08T16:54:33;4.93;;;4.83;;
66371;SDS011;53168;51.146;17.120;2023-10-08T16:57:07;6.78;;;6.69;;
66371;SDS011;53168;51.146;17.120;2023-10-08T16:59:41;9.79;;;9.72;;
66371;SDS011;53168;51.146;17.120;2023-10-08T17:02:16;9.37;;;9.26;;
66371;SDS011;53168;51.146;17.120;2023-10-08T17:04:50;8.79;;;8.73;;
66371;SDS011;53168;51.146;17.120;2023-10-08T17:07:27;7.29;;;7.28;;
66371;SDS011;53168;51.146;17.120;2023-10-08T17:10:06;6.33;;;6.27;;
66371;SDS011;53168;51.146;17.120;2023-10-08T17:12:41;5.70;;;5.61;;
66371;SDS011;53168;51.146;17.120;2023-10-08T17:15:17;6.28;;;6.21;;
66371;SDS011;53168;51.146;17.120;2023-10-08T17:17:53;6.67;;;6.56;;
66371;SDS011;53168;51.146;17.120;2023-10-08T17:20:27;5.68;;;5.61;;
66371;SDS011;53168;51.146;17.120;2023-10-08T17:23:01;5.67;;;5.65;;
66371;SDS011;53168;51.146;17.120;2023-10-08T17:25:37;5.95;;;5.93;;
66371;SDS011;53168;51.146;17.120;2023-10-08T17:28:19;5.37;;;5.36;;
66371;SDS011;53168;51.146;17.120;2023-10-08T17:30:53;4.10;;;4.08;;
66371;SDS011;53168;51.146;17.120;2023-10-08T17:33:32;4.52;;;4.43;;
66371;SDS011;53168;51.146;17.120;2023-10-08T17:36:08;4.83;;;4.77;;
66371;SDS011;53168;51.146;17.120;2023-10-08T17:38:47;6.81;;;6.79;;
66371;SDS011;53168;51.146;17.120;2023-10-08T17:41:22;6.54;;;6.54;;
66371;SDS011;53168;51.146;17.120;2023-10-08T17:44:04;5.78;;;5.74;;
66371;SDS011;53168;51.146;17.120;2023-10-08T17:46:42;6.66;;;6.66;;
66371;SDS011;53168;51.146;17.120;2023-10-08T17:49:21;8.35;;;8.32;;
66371;SDS011;53168;51.146;17.120;2023-10-08T17:52:02;5.48;;;5.42;;
66371;SDS011;53168;51.146;17.120;2023-10-08T17:54:42;6.26;;;6.24;;
66371;SDS011;53168;51.146;17.120;2023-10-08T17:57:54;3.63;;;3.63;;
66371;SDS011;53168;51.146;17.120;2023-10-08T18:01:13;2.78;;;2.78;;
66371;SDS011;53168;51.146;17.120;2023-10-08T18:03:56;2.54;;;2.52;;
66371;SDS011;53168;51.146;17.120;2023-10-08T18:06:37;2.68;;;2.65;;
66371;SDS011;53168;51.146;17.120;2023-10-08T18:09:17;2.57;;;2.54;;
66371;SDS011;53168;51.146;17.120;2023-10-08T18:12:08;2.56;;;2.56;;
66371;SDS011;53168;51.146;17.120;2023-10-08T18:20:47;3.65;;;3.60;;
66371;SDS011;53168;51.146;17.120;2023-10-08T18:23:54;3.80;;;3.76;;
66371;SDS011;53168;51.146;17.120;2023-10-08T18:26:38;3.60;;;3.58;;
66371;SDS011;53168;51.146;17.120;2023-10-08T19:18:34;5.01;;;4.95;;
66371;SDS011;53168;51.146;17.120;2023-10-08T19:21:21;5.61;;;5.50;;
66371;SDS011;53168;51.146;17.120;2023-10-08T19:24:42;5.10;;;5.02;;
66371;SDS011;53168;51.146;17.120;2023-10-08T19:27:40;4.85;;;4.76;;
66371;SDS011;53168;51.146;17.120;2023-10-08T19:30:48;4.22;;;4.17;;
66371;SDS011;53168;51.146;17.120;2023-10-08T19:33:30;3.81;;;3.79;;
66371;SDS011;53168;51.146;17.120;2023-10-08T19:36:26;4.63;;;4.63;;
66371;SDS011;53168;51.146;17.120;2023-10-08T19:39:07;4.59;;;4.57;;
66371;SDS011;53168;51.146;17.120;2023-10-08T19:41:44;4.09;;;4.00;;
66371;SDS011;53168;51.146;17.120;2023-10-08T19:44:24;4.66;;;4.57;;
66371;SDS011;53168;51.146;17.120;2023-10-08T19:47:00;4.73;;;4.68;;
66371;SDS011;53168;51.146;17.120;2023-10-08T19:49:36;4.35;;;4.35;;
66371;SDS011;53168;51.146;17.120;2023-10-08T21:39:45;9.26;;;8.84;;
66371;SDS011;53168;51.146;17.120;2023-10-08T21:42:24;9.80;;;9.36;;
66371;SDS011;53168;51.146;17.120;2023-10-08T21:45:15;9.96;;;9.66;;
66371;SDS011;53168;51.146;17.120;2023-10-08T21:47:59;10.40;;;10.13;;
66371;SDS011;53168;51.146;17.120;2023-10-08T21:52:09;9.95;;;9.67;;
66371;SDS011;53168;51.146;17.120;2023-10-08T22:05:37;8.97;;;8.94;;
66371;SDS011;53168;51.146;17.120;2023-10-08T22:11:58;10.53;;;9.67;;
66371;SDS011;53168;51.146;17.120;2023-10-08T22:14:51;9.72;;;9.36;;
66371;SDS011;53168;51.146;17.120;2023-10-08T22:17:50;8.77;;;8.55;;
66371;SDS011;53168;51.146;17.120;2023-10-08T22:23:31;9.42;;;9.40;;
66371;SDS011;53168;51.146;17.120;2023-10-08T22:40:49;9.46;;;9.44;;
66371;SDS011;53168;51.146;17.120;2023-10-08T22:51:04;9.31;;;9.16;;
66371;SDS011;53168;51.146;17.120;2023-10-08T22:54:09;8.69;;;8.49;;
66371;SDS011;53168;51.146;17.120;2023-10-08T23:20:49;9.99;;;9.98;;
66371;SDS011;53168;51.146;17.120;2023-10-08T23:23:19;10.23;;;10.21;;
66371;SDS011;53168;51.146;17.120;2023-10-08T23:25:51;9.73;;;9.69;;
66371;SDS011;53168;51.146;17.120;2023-10-08T23:28:23;9.60;;;9.45;;
66371;SDS011;53168;51.146;17.120;2023-10-08T23:30:54;9.55;;;9.43;;
66371;SDS011;53168;51.146;17.120;2023-10-08T23:33:30;9.33;;;9.28;;
66371;SDS011;53168;51.146;17.120;2023-10-08T23:36:02;9.08;;;9.07;;
66371;SDS011;53168;51.146;17.120;2023-10-08T23:38:36;9.25;;;9.21;;
66371;SDS011;53168;51.146;17.120;2023-10-08T23:41:06;8.80;;;8.80;;
66371;SDS011;53168;51.146;17.120;2023-10-08T23:43:45;9.01;;;9.01;;
66371;SDS011;53168;51.146;17.120;2023-10-08T23:46:23;9.15;;;9.13;;
66371;SDS011;53168;51.146;17.120;2023-10-08T23:48:59;9.10;;;9.10;;
66371;SDS011;53168;51.146;17.120;2023-10-08T23:51:43;8.81;;;8.79;;
